Погода Лузиландияна 2 недели

Пиауи, Бразилия

12 - 25 июля
  • 12июля
    Сегодня
    +22°
    +32°
    Облачно с прояснениями
    ВремяПогодаТемператураВлажностьДавлениеВетер, м/сВероятность осадков
    00:00Облачно с прояснениями+25°C78 %760 мм2.0 м/с5 %
    03:00Облачно с прояснениями+23°C95 %760 мм2.0 м/с5 %
    06:00Облачно с прояснениями+22°C93 %760 мм1.3 м/с5 %
    09:00Облачно с прояснениями+28°C63 %761 мм2.1 м/с5 %
    12:00Облачно с прояснениями+31°C53 %760 мм5.4 м/с5 %
    15:00Облачно с прояснениями+32°C46 %758 мм2.3 м/с3 %
    18:00Облачно с прояснениями+29°C70 %759 мм1.9 м/с3 %
    21:00Облачно с прояснениями+26°C84 %760 мм2.6 м/с5 %
  • 13июля
    Суббота
    +21°
    +32°
    Облачно с прояснениями
    ВремяПогодаТемператураВлажностьДавлениеВетер, м/сВероятность осадков
    00:00Облачно с прояснениями+25°C92 %760 мм1.9 м/с2 %
    03:00Облачно с прояснениями+24°C91 %759 мм1.7 м/с2 %
    06:00Практически безоблачно+23°C90 %760 мм1.6 м/с1 %
    09:00Облачно с прояснениями+28°C68 %761 мм4.1 м/с4 %
    12:00Небольшая облачность+31°C54 %760 мм5.0 м/с16 %
    15:00Облачно с прояснениями+32°C49 %758 мм3.9 м/с16 %
    18:00Небольшая облачность+29°C71 %758 мм1.8 м/с2 %
    21:00Небольшая облачность+27°C76 %760 мм1.6 м/с3 %
  • 14июля
    Воскресенье
    +22°
    +32°
    Небольшая облачность
    ВремяПогодаТемператураВлажностьДавлениеВетер, м/сВероятность осадков
    00:00Ясно и безоблачно+26°C81 %760 мм0.7 м/с4 %
    03:00Ясно и безоблачно+23°C93 %759 мм1.3 м/с2 %
    06:00Небольшая облачность+22°C87 %760 мм1.6 м/с3 %
    09:00Облачно с прояснениями+27°C58 %762 мм4.0 м/с5 %
    12:00Облачно с прояснениями+30°C53 %760 мм4.0 м/с5 %
    15:00Небольшая облачность+31°C44 %758 мм2.5 м/с5 %
    18:00Ясно и безоблачно+29°C66 %759 мм1.7 м/с5 %
    21:00Практически безоблачно+26°C74 %761 мм1.7 м/с5 %
  • 15июля
    Понедельник
    +21°
    +33°
    Ясно и безоблачно
    ВремяПогодаТемператураВлажностьДавлениеВетер, м/сВероятность осадков
    00:00Ясно и безоблачно+24°C88 %760 мм1.8 м/с5 %
    03:00Ясно и безоблачно+23°C93 %759 мм1.7 м/с4 %
    06:00Ясно и безоблачно+22°C91 %761 мм2.7 м/с4 %
    09:00Ясно и безоблачно+28°C66 %762 мм3.4 м/с5 %
    12:00Ясно и безоблачно+31°C49 %761 мм5.3 м/с5 %
    15:00Ясно и безоблачно+32°C41 %759 мм3.3 м/с5 %
    18:00Практически безоблачно+29°C64 %759 мм2.1 м/с5 %
    21:00Небольшая облачность+27°C74 %761 мм2.0 м/с3 %
  • 16июля
    Вторник
    +22°
    +32°
    Ясно и безоблачно
    ВремяПогодаТемператураВлажностьДавлениеВетер, м/сВероятность осадков
    00:00Ясно и безоблачно+25°C87 %761 мм1.5 м/с4 %
    03:00Ясно и безоблачно+24°C81 %760 мм0.7 м/с4 %
    06:00Ясно и безоблачно+22°C85 %761 мм2.3 м/с10 %
    09:00Ясно и безоблачно+28°C63 %762 мм3.9 м/с8 %
    12:00Ясно и безоблачно+30°C44 %761 мм5.2 м/с4 %
    15:00Ясно и безоблачно+31°C40 %759 мм3.8 м/с5 %
    18:00Ясно и безоблачно+27°C57 %760 мм1.7 м/с5 %
    21:00Практически безоблачно+27°C62 %762 мм2.5 м/с5 %
Мы используем cookies
Соглашаюсь